Time;durP1;ratioP1;P1;durP2;ratioP2;P2;SDS_P1;SDS_P2;PMS_P1;PMS_P2;Temp;Humidity;BMP_temperature;BMP_pressure;BME280_temperature;BME280_humidity;BME280_pressure;Samples;Min_cycle;Max_cycle;Signal;HPM_P1;HPM_P2
2023/10/22 00:02:11;;;;;;;1.15;1.05;;;;;;;;;;4974827;28;20102;-31
2023/10/22 00:04:40;;;;;;;0.85;0.80;;;;;;;;;;4974620;28;20038;-22
2023/10/22 00:07:06;;;;;;;1.10;1.00;;;;;;;;;;4974595;28;20042;-22
2023/10/22 00:09:33;;;;;;;1.90;1.10;;;;;;;;;;4974538;28;20469;-22
2023/10/22 00:11:59;;;;;;;1.10;1.00;;;;;;;;;;4974696;28;20038;-24
2023/10/22 00:14:25;;;;;;;1.00;1.00;;;;;;;;;;4974760;28;20023;-21
2023/10/22 00:16:51;;;;;;;1.33;0.90;;;;;;;;;;4974716;28;20046;-21
2023/10/22 00:19:17;;;;;;;1.15;1.05;;;;;;;;;;4974360;28;20041;-23
2023/10/22 00:21:43;;;;;;;1.27;0.95;;;;;;;;;;4974642;28;20102;-21
2023/10/22 00:24:09;;;;;;;1.15;1.05;;;;;;;;;;4974498;28;20174;-22
2023/10/22 00:26:35;;;;;;;0.80;0.80;;;;;;;;;;4974598;28;20038;-22
2023/10/22 00:29:02;;;;;;;1.33;1.20;;;;;;;;;;4974291;28;20034;-22
2023/10/22 00:31:28;;;;;;;0.82;0.82;;;;;;;;;;4974251;28;20023;-22
2023/10/22 00:33:54;;;;;;;1.35;1.25;;;;;;;;;;4974114;28;20476;-22
2023/10/22 00:36:24;;;;;;;0.80;0.80;;;;;;;;;;4974174;28;20072;-21
2023/10/22 00:38:50;;;;;;;0.75;0.75;;;;;;;;;;4974313;28;20387;-22
2023/10/22 00:41:16;;;;;;;1.45;1.35;;;;;;;;;;4973674;28;20037;-22
2023/10/22 00:43:42;;;;;;;0.90;0.90;;;;;;;;;;4973509;28;20027;-23
2023/10/22 00:46:21;;;;;;;1.45;1.35;;;;;;;;;;4974018;28;20023;-22
2023/10/22 00:48:47;;;;;;;1.25;1.15;;;;;;;;;;4973959;28;20053;-23
2023/10/22 00:51:14;;;;;;;3.22;0.98;;;;;;;;;;4973965;28;20314;-22
2023/10/22 00:53:45;;;;;;;1.13;1.02;;;;;;;;;;4974103;28;20041;-22
2023/10/22 00:56:12;;;;;;;1.35;0.90;;;;;;;;;;4974154;28;20038;-25
2023/10/22 00:58:38;;;;;;;1.30;1.00;;;;;;;;;;4972627;28;20458;-22
2023/10/22 01:01:08;;;;;;;1.15;1.13;;;;;;;;;;4973792;28;20031;-22
2023/10/22 01:03:37;;;;;;;1.08;0.98;;;;;;;;;;4973676;28;20421;-22
2023/10/22 01:06:04;;;;;;;1.05;0.95;;;;;;;;;;4974230;28;20423;-24
2023/10/22 01:08:32;;;;;;;1.27;0.82;;;;;;;;;;4973690;28;20101;-22
2023/10/22 01:11:08;;;;;;;0.80;0.80;;;;;;;;;;4973584;28;20023;-22
2023/10/22 01:13:34;;;;;;;1.17;1.05;;;;;;;;;;4973586;28;20053;-22
2023/10/22 01:16:00;;;;;;;0.80;0.80;;;;;;;;;;4973548;28;20031;-22
2023/10/22 01:18:26;;;;;;;0.82;0.82;;;;;;;;;;4974009;28;20441;-22
2023/10/22 01:20:53;;;;;;;1.08;0.90;;;;;;;;;;4973509;28;20030;-22
2023/10/22 01:23:19;;;;;;;1.42;1.20;;;;;;;;;;4973677;28;20066;-22
2023/10/22 01:25:45;;;;;;;1.42;1.05;;;;;;;;;;4973417;28;20453;-21
2023/10/22 01:28:11;;;;;;;1.25;1.15;;;;;;;;;;4973371;28;20450;-22
2023/10/22 01:30:37;;;;;;;1.15;1.05;;;;;;;;;;4973662;28;20118;-22
2023/10/22 01:33:03;;;;;;;1.15;1.00;;;;;;;;;;4973285;28;20057;-22
2023/10/22 01:35:30;;;;;;;1.85;1.13;;;;;;;;;;4973608;28;20377;-23
2023/10/22 01:37:56;;;;;;;3.22;0.73;;;;;;;;;;4973198;28;20472;-23
2023/10/22 01:40:22;;;;;;;1.00;0.93;;;;;;;;;;4972423;28;20493;-23
2023/10/22 01:42:48;;;;;;;1.33;0.90;;;;;;;;;;4973095;28;20108;-22
2023/10/22 01:45:14;;;;;;;1.58;0.77;;;;;;;;;;4973159;28;20031;-22
2023/10/22 01:47:40;;;;;;;2.03;1.13;;;;;;;;;;4973161;28;20023;-22
2023/10/22 01:50:07;;;;;;;1.27;1.08;;;;;;;;;;4973088;28;20446;-23
2023/10/22 01:52:33;;;;;;;0.95;0.93;;;;;;;;;;4972907;28;20042;-21
2023/10/22 01:54:59;;;;;;;1.33;1.20;;;;;;;;;;4973177;28;20058;-22
2023/10/22 01:57:25;;;;;;;1.00;0.88;;;;;;;;;;4972710;28;20051;-21
2023/10/22 01:59:51;;;;;;;1.27;1.00;;;;;;;;;;4973195;28;20025;-22
2023/10/22 02:02:18;;;;;;;0.88;0.88;;;;;;;;;;4972878;28;20048;-22
2023/10/22 02:04:44;;;;;;;0.90;0.80;;;;;;;;;;4973235;28;20465;-22
2023/10/22 02:07:11;;;;;;;1.15;0.80;;;;;;;;;;4972904;28;20050;-21
2023/10/22 02:09:37;;;;;;;1.67;1.20;;;;;;;;;;4972910;28;20026;-21
2023/10/22 02:12:04;;;;;;;1.90;1.00;;;;;;;;;;4973009;28;20496;-21
2023/10/22 02:14:30;;;;;;;0.75;0.73;;;;;;;;;;4973095;28;20034;-22
2023/10/22 02:16:56;;;;;;;0.80;0.80;;;;;;;;;;4973089;28;20018;-22
2023/10/22 02:19:22;;;;;;;0.95;0.85;;;;;;;;;;4972700;28;20446;-22
2023/10/22 02:21:49;;;;;;;1.52;0.70;;;;;;;;;;4972880;28;20023;-21
2023/10/22 02:24:15;;;;;;;1.75;1.10;;;;;;;;;;4972941;28;20096;-22
2023/10/22 02:26:41;;;;;;;0.90;0.90;;;;;;;;;;4972928;28;20030;-23
2023/10/22 02:29:08;;;;;;;1.40;1.17;;;;;;;;;;4972040;28;20031;-22
2023/10/22 02:31:34;;;;;;;1.13;1.00;;;;;;;;;;4972559;28;20046;-21
2023/10/22 02:34:07;;;;;;;0.73;0.70;;;;;;;;;;4972527;28;20023;-24
2023/10/22 02:36:33;;;;;;;1.13;1.02;;;;;;;;;;4972599;28;20413;-23
2023/10/22 02:39:00;;;;;;;1.58;1.00;;;;;;;;;;4971529;28;20039;-23
2023/10/22 02:41:26;;;;;;;0.98;0.88;;;;;;;;;;4972760;28;20038;-23
2023/10/22 02:43:52;;;;;;;0.80;0.80;;;;;;;;;;4972442;28;20416;-23
2023/10/22 02:46:18;;;;;;;1.77;1.67;;;;;;;;;;4972432;28;20019;-24
2023/10/22 02:48:44;;;;;;;1.25;1.15;;;;;;;;;;4972927;28;20533;-21
2023/10/22 02:51:11;;;;;;;0.90;0.90;;;;;;;;;;4972389;28;20092;-22
2023/10/22 02:53:38;;;;;;;1.63;1.25;;;;;;;;;;4972535;28;20364;-22
2023/10/22 02:56:04;;;;;;;1.55;1.40;;;;;;;;;;4972289;28;20110;-22
2023/10/22 02:58:30;;;;;;;0.88;0.88;;;;;;;;;;4972124;28;20039;-22
2023/10/22 03:01:04;;;;;;;1.10;0.95;;;;;;;;;;4972502;28;20034;-21
2023/10/22 03:03:31;;;;;;;3.13;1.02;;;;;;;;;;4972492;28;20326;-22
2023/10/22 03:06:00;;;;;;;1.00;0.90;;;;;;;;;;4973935;28;20031;-21
2023/10/22 03:08:27;;;;;;;1.58;1.48;;;;;;;;;;4975570;28;20027;-24
2023/10/22 03:10:53;;;;;;;0.95;0.80;;;;;;;;;;4975531;28;20108;-22
2023/10/22 03:13:19;;;;;;;0.90;0.75;;;;;;;;;;4975484;28;20037;-23
2023/10/22 03:15:45;;;;;;;0.77;0.70;;;;;;;;;;4975661;28;20038;-22
2023/10/22 03:18:11;;;;;;;1.10;1.00;;;;;;;;;;4975283;28;20446;-21
2023/10/22 03:20:37;;;;;;;0.68;0.65;;;;;;;;;;4975354;28;20031;-21
2023/10/22 03:23:05;;;;;;;1.10;0.80;;;;;;;;;;4975255;28;20027;-22
2023/10/22 03:25:33;;;;;;;1.38;1.05;;;;;;;;;;4975234;28;20034;-22
2023/10/22 03:28:03;;;;;;;1.10;1.00;;;;;;;;;;4975148;28;20035;-22
2023/10/22 03:30:29;;;;;;;0.77;0.77;;;;;;;;;;4975163;28;20362;-23
2023/10/22 03:32:55;;;;;;;1.27;0.98;;;;;;;;;;4975016;28;20110;-26
2023/10/22 03:35:22;;;;;;;0.90;0.90;;;;;;;;;;4975893;28;20038;-22
2023/10/22 03:37:48;;;;;;;0.90;0.82;;;;;;;;;;4975289;28;20379;-22
2023/10/22 03:40:14;;;;;;;1.30;1.20;;;;;;;;;;4975020;28;20030;-23
2023/10/22 03:42:40;;;;;;;1.45;1.10;;;;;;;;;;4975132;28;20019;-22
2023/10/22 03:45:07;;;;;;;0.80;0.70;;;;;;;;;;4975221;28;20149;-22
2023/10/22 03:47:33;;;;;;;0.90;0.80;;;;;;;;;;4974909;28;20026;-22
2023/10/22 03:49:59;;;;;;;1.08;1.08;;;;;;;;;;4975119;28;20051;-21
2023/10/22 03:52:25;;;;;;;0.98;0.90;;;;;;;;;;4975000;28;20029;-22
2023/10/22 03:54:51;;;;;;;1.10;0.90;;;;;;;;;;4975076;28;20027;-21
2023/10/22 03:57:17;;;;;;;1.20;1.10;;;;;;;;;;4973521;28;20466;-22
2023/10/22 03:59:43;;;;;;;1.08;1.08;;;;;;;;;;4974742;28;20089;-22
2023/10/22 04:02:09;;;;;;;0.90;0.90;;;;;;;;;;4973793;28;20045;-21
2023/10/22 04:04:35;;;;;;;1.15;1.00;;;;;;;;;;4974700;28;20022;-23
2023/10/22 04:07:03;;;;;;;1.02;1.02;;;;;;;;;;4974885;28;20023;-22
2023/10/22 04:09:29;;;;;;;0.82;0.82;;;;;;;;;;4974890;28;20513;-22
2023/10/22 04:11:56;;;;;;;1.00;1.00;;;;;;;;;;4974484;28;20027;-21
2023/10/22 04:14:22;;;;;;;0.70;0.70;;;;;;;;;;4974781;28;20335;-22
2023/10/22 04:16:51;;;;;;;1.05;0.95;;;;;;;;;;4974728;28;20058;-22
2023/10/22 04:19:17;;;;;;;0.82;0.82;;;;;;;;;;4974291;28;20110;-22
2023/10/22 04:21:44;;;;;;;2.03;0.98;;;;;;;;;;4974676;28;20019;-21
2023/10/22 04:24:10;;;;;;;0.70;0.70;;;;;;;;;;4974293;28;20031;-22
2023/10/22 04:26:36;;;;;;;1.02;0.90;;;;;;;;;;4974357;28;20034;-21
2023/10/22 04:29:02;;;;;;;0.93;0.93;;;;;;;;;;4974541;28;20026;-21
2023/10/22 04:31:28;;;;;;;1.35;1.20;;;;;;;;;;4974239;28;20055;-22
2023/10/22 04:33:54;;;;;;;0.90;0.90;;;;;;;;;;4974170;28;20101;-23
2023/10/22 04:36:21;;;;;;;0.90;0.90;;;;;;;;;;4974461;28;20093;-22
2023/10/22 04:38:48;;;;;;;0.90;0.90;;;;;;;;;;4974036;28;20507;-23
2023/10/22 04:41:14;;;;;;;0.68;0.68;;;;;;;;;;4974091;28;20177;-24
2023/10/22 04:43:41;;;;;;;0.90;0.90;;;;;;;;;;4974000;28;20073;-21
2023/10/22 04:46:07;;;;;;;0.73;0.65;;;;;;;;;;4974298;28;20019;-22
2023/10/22 04:48:33;;;;;;;1.27;1.17;;;;;;;;;;4974249;28;20026;-21
2023/10/22 04:51:06;;;;;;;2.20;0.70;;;;;;;;;;4973860;28;20123;-22
2023/10/22 04:53:34;;;;;;;0.75;0.70;;;;;;;;;;4974698;28;20109;-22
2023/10/22 04:56:00;;;;;;;0.52;0.52;;;;;;;;;;4973912;28;20038;-24
2023/10/22 04:58:32;;;;;;;0.65;0.65;;;;;;;;;;4973650;28;20427;-22
2023/10/22 05:00:58;;;;;;;1.08;0.80;;;;;;;;;;4974153;28;20027;-22
2023/10/22 05:03:24;;;;;;;0.90;0.90;;;;;;;;;;4974023;28;20383;-22
2023/10/22 05:05:51;;;;;;;0.75;0.73;;;;;;;;;;4973712;28;20163;-22
2023/10/22 05:08:17;;;;;;;0.73;0.60;;;;;;;;;;4973735;28;20038;-21
2023/10/22 05:10:43;;;;;;;0.80;0.80;;;;;;;;;;4973696;28;20023;-22
2023/10/22 05:13:09;;;;;;;0.98;0.90;;;;;;;;;;4973813;28;20396;-22
2023/10/22 05:15:36;;;;;;;1.48;0.95;;;;;;;;;;4973889;28;20110;-21
2023/10/22 05:18:05;;;;;;;2.08;0.98;;;;;;;;;;4972556;28;20539;-21
2023/10/22 05:20:33;;;;;;;0.82;0.82;;;;;;;;;;4973556;28;20116;-22
2023/10/22 05:22:59;;;;;;;1.05;0.77;;;;;;;;;;4973435;28;20019;-22
2023/10/22 05:25:25;;;;;;;0.70;0.65;;;;;;;;;;4973490;28;20047;-22
2023/10/22 05:27:51;;;;;;;0.55;0.55;;;;;;;;;;4973180;28;20035;-22
2023/10/22 05:30:18;;;;;;;0.70;0.70;;;;;;;;;;4973382;28;20418;-22
2023/10/22 05:32:44;;;;;;;0.70;0.65;;;;;;;;;;4973268;28;20030;-22
2023/10/22 05:35:10;;;;;;;1.05;0.80;;;;;;;;;;4973609;28;20023;-21
2023/10/22 05:37:36;;;;;;;0.80;0.80;;;;;;;;;;4973232;28;20082;-22
2023/10/22 05:40:04;;;;;;;1.52;1.42;;;;;;;;;;4973784;28;20324;-21
2023/10/22 05:42:30;;;;;;;0.85;0.85;;;;;;;;;;4973411;28;20027;-22
2023/10/22 05:44:56;;;;;;;0.82;0.82;;;;;;;;;;4973221;28;20113;-25
2023/10/22 05:47:22;;;;;;;0.60;0.60;;;;;;;;;;4973200;28;20042;-21
2023/10/22 05:49:49;;;;;;;1.42;1.15;;;;;;;;;;4973382;28;20362;-22
2023/10/22 05:52:15;;;;;;;0.90;0.90;;;;;;;;;;4973238;28;20018;-23
2023/10/22 05:54:42;;;;;;;0.80;0.80;;;;;;;;;;4973131;28;20031;-29
2023/10/22 05:57:08;;;;;;;1.05;0.95;;;;;;;;;;4972872;28;20487;-22
2023/10/22 05:59:34;;;;;;;1.02;0.88;;;;;;;;;;4972933;28;20027;-22
2023/10/22 06:02:02;;;;;;;1.70;1.17;;;;;;;;;;4972866;28;20030;-22
2023/10/22 06:04:28;;;;;;;1.08;0.80;;;;;;;;;;4972983;28;20019;-24
2023/10/22 06:06:54;;;;;;;0.80;0.80;;;;;;;;;;4972909;28;20038;-23
2023/10/22 06:09:20;;;;;;;1.02;0.88;;;;;;;;;;4972883;28;20033;-23
2023/10/22 06:11:46;;;;;;;0.73;0.73;;;;;;;;;;4973320;28;20405;-22
2023/10/22 06:14:12;;;;;;;0.80;0.80;;;;;;;;;;4973110;28;20038;-25
2023/10/22 06:16:38;;;;;;;1.00;0.85;;;;;;;;;;4972803;28;20092;-22
2023/10/22 06:19:04;;;;;;;0.77;0.77;;;;;;;;;;4971768;28;20466;-22
2023/10/22 06:21:30;;;;;;;0.63;0.63;;;;;;;;;;4973041;28;20023;-22
2023/10/22 06:23:57;;;;;;;0.77;0.77;;;;;;;;;;4972638;28;20072;-21
2023/10/22 06:26:23;;;;;;;0.80;0.70;;;;;;;;;;4971764;28;20508;-23
2023/10/22 06:28:49;;;;;;;1.27;1.17;;;;;;;;;;4972607;28;20031;-21
2023/10/22 06:31:15;;;;;;;0.82;0.82;;;;;;;;;;4972670;28;20147;-21
2023/10/22 06:33:42;;;;;;;0.93;0.88;;;;;;;;;;4972565;28;20094;-22
2023/10/22 06:36:15;;;;;;;1.10;1.00;;;;;;;;;;4972830;28;20342;-22
2023/10/22 06:38:42;;;;;;;1.17;1.08;;;;;;;;;;4973005;28;20110;-22
2023/10/22 06:41:26;;;;;;;0.70;0.70;;;;;;;;;;4974872;28;20097;-24
2023/10/22 06:43:53;;;;;;;0.88;0.70;;;;;;;;;;4975941;28;20152;-23
2023/10/22 06:46:20;;;;;;;0.70;0.70;;;;;;;;;;4975858;28;20027;-21
2023/10/22 06:48:46;;;;;;;1.58;0.90;;;;;;;;;;4976129;28;20027;-21
2023/10/22 06:51:15;;;;;;;1.00;0.93;;;;;;;;;;4976346;28;20026;-22
2023/10/22 06:53:42;;;;;;;0.90;0.90;;;;;;;;;;4976118;28;20035;-23
2023/10/22 06:56:08;;;;;;;0.93;0.93;;;;;;;;;;4975748;28;20096;-22
2023/10/22 06:58:35;;;;;;;0.88;0.65;;;;;;;;;;4975443;28;20465;-22
2023/10/22 07:01:05;;;;;;;0.77;0.77;;;;;;;;;;4975594;28;20442;-21
2023/10/22 07:03:31;;;;;;;0.77;0.77;;;;;;;;;;4975647;28;20327;-22
2023/10/22 07:05:58;;;;;;;0.80;0.80;;;;;;;;;;4975572;28;20262;-21
2023/10/22 07:08:24;;;;;;;0.60;0.60;;;;;;;;;;4975595;28;20031;-23
2023/10/22 07:10:50;;;;;;;1.02;0.88;;;;;;;;;;4975462;28;20056;-22
2023/10/22 07:13:18;;;;;;;0.73;0.73;;;;;;;;;;4975380;28;20046;-22
2023/10/22 07:15:44;;;;;;;0.80;0.80;;;;;;;;;;4975452;28;20113;-22
2023/10/22 07:18:10;;;;;;;1.10;1.05;;;;;;;;;;4975371;28;20081;-26
2023/10/22 07:20:36;;;;;;;0.60;0.60;;;;;;;;;;4974784;28;20031;-21
2023/10/22 07:23:04;;;;;;;0.77;0.77;;;;;;;;;;4974353;28;20022;-23
2023/10/22 07:25:30;;;;;;;0.70;0.70;;;;;;;;;;4975569;28;20460;-22
2023/10/22 07:27:56;;;;;;;0.68;0.65;;;;;;;;;;4975150;28;20106;-23
2023/10/22 07:30:22;;;;;;;0.73;0.73;;;;;;;;;;4975072;28;20445;-21
2023/10/22 07:32:51;;;;;;;0.95;0.90;;;;;;;;;;4975349;28;20027;-22
2023/10/22 07:35:17;;;;;;;0.70;0.70;;;;;;;;;;4975362;28;20038;-21
2023/10/22 07:37:44;;;;;;;0.70;0.70;;;;;;;;;;4975824;28;20311;-21
2023/10/22 07:40:12;;;;;;;1.05;0.95;;;;;;;;;;4975349;28;20039;-21
2023/10/22 07:42:39;;;;;;;0.75;0.75;;;;;;;;;;4974950;28;20038;-23
2023/10/22 07:45:05;;;;;;;0.77;0.77;;;;;;;;;;4974966;28;20092;-22
2023/10/22 07:47:31;;;;;;;0.80;0.70;;;;;;;;;;4975006;28;20058;-24
2023/10/22 07:49:57;;;;;;;0.55;0.55;;;;;;;;;;4974914;28;20023;-22
2023/10/22 07:52:23;;;;;;;1.20;1.10;;;;;;;;;;4974783;28;20106;-22
2023/10/22 07:54:52;;;;;;;0.80;0.70;;;;;;;;;;4974887;28;20019;-23
2023/10/22 07:57:18;;;;;;;0.93;0.93;;;;;;;;;;4974783;28;20372;-22
2023/10/22 07:59:45;;;;;;;0.80;0.80;;;;;;;;;;4974645;28;20118;-22
2023/10/22 08:02:11;;;;;;;0.60;0.60;;;;;;;;;;4974919;28;20027;-22
2023/10/22 08:04:38;;;;;;;0.65;0.60;;;;;;;;;;4974974;28;20027;-22
2023/10/22 08:07:04;;;;;;;0.80;0.80;;;;;;;;;;4975228;28;20049;-25
2023/10/22 08:09:30;;;;;;;1.38;1.10;;;;;;;;;;4974682;28;20027;-23
2023/10/22 08:11:57;;;;;;;0.70;0.70;;;;;;;;;;4974754;28;20030;-22
2023/10/22 08:14:24;;;;;;;0.70;0.70;;;;;;;;;;4974558;28;20446;-24
2023/10/22 08:16:51;;;;;;;0.70;0.70;;;;;;;;;;4974525;28;20389;-22
2023/10/22 08:19:17;;;;;;;0.82;0.82;;;;;;;;;;4974416;28;20031;-22
2023/10/22 08:21:43;;;;;;;0.90;0.90;;;;;;;;;;4974478;28;20023;-24
2023/10/22 08:24:09;;;;;;;1.00;0.90;;;;;;;;;;4974317;28;20019;-22
2023/10/22 08:26:35;;;;;;;0.70;0.70;;;;;;;;;;4974373;28;20023;-24
2023/10/22 08:29:01;;;;;;;0.88;0.88;;;;;;;;;;4974345;28;20335;-22
2023/10/22 08:31:27;;;;;;;0.65;0.65;;;;;;;;;;4974576;28;20041;-23
2023/10/22 08:33:54;;;;;;;0.90;0.90;;;;;;;;;;4974178;28;20054;-25
2023/10/22 08:36:20;;;;;;;1.48;1.38;;;;;;;;;;4974497;28;20099;-22
2023/10/22 08:38:46;;;;;;;0.93;0.93;;;;;;;;;;4974115;28;20027;-23
2023/10/22 08:41:20;;;;;;;0.75;0.68;;;;;;;;;;4974408;28;20048;-22
2023/10/22 08:43:46;;;;;;;0.55;0.55;;;;;;;;;;4974154;28;20023;-22
2023/10/22 08:46:12;;;;;;;0.60;0.60;;;;;;;;;;4974052;28;20053;-22
2023/10/22 08:48:40;;;;;;;0.70;0.70;;;;;;;;;;4973968;28;20077;-22
2023/10/22 08:51:07;;;;;;;1.00;0.90;;;;;;;;;;4974003;28;20404;-23
2023/10/22 08:53:33;;;;;;;0.73;0.73;;;;;;;;;;4973907;28;20034;-22
2023/10/22 08:56:00;;;;;;;0.43;0.43;;;;;;;;;;4972950;28;20531;-26
2023/10/22 08:58:27;;;;;;;0.95;0.80;;;;;;;;;;4973638;28;20050;-22
2023/10/22 09:00:53;;;;;;;0.85;0.70;;;;;;;;;;4974150;28;20029;-22
2023/10/22 09:03:19;;;;;;;0.68;0.68;;;;;;;;;;4972989;28;20031;-22
2023/10/22 09:05:46;;;;;;;0.70;0.70;;;;;;;;;;4973789;28;20308;-22
2023/10/22 09:08:12;;;;;;;0.80;0.80;;;;;;;;;;4973670;28;20039;-22
2023/10/22 09:10:39;;;;;;;0.70;0.70;;;;;;;;;;4973713;28;20049;-23
2023/10/22 09:13:08;;;;;;;0.60;0.60;;;;;;;;;;4973582;28;20107;-22
2023/10/22 09:15:37;;;;;;;1.30;0.93;;;;;;;;;;4973570;28;20037;-22
2023/10/22 09:18:04;;;;;;;0.50;0.50;;;;;;;;;;4973757;28;20034;-22
2023/10/22 09:20:30;;;;;;;0.65;0.65;;;;;;;;;;4973597;28;20076;-24
2023/10/22 09:23:12;;;;;;;0.77;0.77;;;;;;;;;;4973741;28;20038;-22
2023/10/22 09:25:38;;;;;;;0.63;0.63;;;;;;;;;;4973764;28;20031;-22
2023/10/22 09:28:20;;;;;;;0.95;0.80;;;;;;;;;;4973957;28;20049;-22
2023/10/22 09:30:47;;;;;;;0.70;0.70;;;;;;;;;;4973731;28;20041;-23
2023/10/22 09:33:16;;;;;;;0.68;0.68;;;;;;;;;;4973254;28;20035;-24
2023/10/22 09:35:57;;;;;;;1.83;0.80;;;;;;;;;;4973589;28;20374;-22
2023/10/22 09:38:40;;;;;;;1.10;0.63;;;;;;;;;;4973598;28;20145;-23
2023/10/22 09:41:06;;;;;;;0.85;0.68;;;;;;;;;;4973576;28;20062;-22
2023/10/22 09:43:32;;;;;;;0.95;0.73;;;;;;;;;;4973250;28;20023;-24
2023/10/22 09:45:58;;;;;;;0.63;0.63;;;;;;;;;;4973209;28;20061;-27
2023/10/22 09:48:27;;;;;;;0.85;0.85;;;;;;;;;;4973166;28;20030;-24
2023/10/22 09:50:54;;;;;;;0.82;0.60;;;;;;;;;;4973435;28;20058;-23
2023/10/22 09:53:22;;;;;;;1.10;0.80;;;;;;;;;;4973073;28;20100;-22
2023/10/22 09:55:49;;;;;;;0.65;0.60;;;;;;;;;;4973096;28;20038;-25
2023/10/22 09:58:19;;;;;;;0.82;0.82;;;;;;;;;;4972770;28;20468;-22
2023/10/22 10:00:45;;;;;;;0.85;0.77;;;;;;;;;;4972105;28;20477;-25
2023/10/22 10:03:12;;;;;;;0.63;0.60;;;;;;;;;;4973189;28;20106;-21
2023/10/22 10:05:38;;;;;;;0.75;0.65;;;;;;;;;;4972966;28;20335;-22
2023/10/22 10:08:05;;;;;;;1.25;0.80;;;;;;;;;;4973190;28;20342;-26
2023/10/22 10:10:31;;;;;;;0.80;0.60;;;;;;;;;;4972914;28;20031;-22
2023/10/22 10:12:57;;;;;;;0.85;0.85;;;;;;;;;;4973058;28;20041;-25
2023/10/22 10:15:35;;;;;;;0.98;0.60;;;;;;;;;;4975607;28;20035;-23
2023/10/22 10:18:01;;;;;;;0.80;0.80;;;;;;;;;;4975330;28;20031;-25
2023/10/22 10:20:28;;;;;;;0.82;0.70;;;;;;;;;;4976299;28;20027;-23
2023/10/22 10:23:12;;;;;;;0.70;0.70;;;;;;;;;;4976407;28;20023;-22
2023/10/22 10:25:39;;;;;;;0.50;0.50;;;;;;;;;;4976158;28;20027;-24
2023/10/22 10:28:06;;;;;;;0.88;0.80;;;;;;;;;;4976408;28;20439;-23
2023/10/22 10:30:33;;;;;;;0.73;0.70;;;;;;;;;;4976079;28;20066;-22
2023/10/22 10:32:59;;;;;;;0.63;0.63;;;;;;;;;;4976248;28;20113;-22
2023/10/22 10:35:27;;;;;;;0.70;0.70;;;;;;;;;;4976056;28;20045;-23
2023/10/22 10:38:12;;;;;;;0.60;0.60;;;;;;;;;;4975942;28;20038;-24
2023/10/22 10:40:51;;;;;;;0.70;0.70;;;;;;;;;;4975883;28;20027;-23
2023/10/22 10:43:21;;;;;;;0.70;0.70;;;;;;;;;;4976058;28;20018;-22
2023/10/22 10:46:05;;;;;;;0.73;0.70;;;;;;;;;;4975857;28;20038;-22
2023/10/22 10:48:45;;;;;;;0.60;0.60;;;;;;;;;;4976107;28;20365;-22
2023/10/22 10:51:18;;;;;;;0.75;0.75;;;;;;;;;;4975774;28;20053;-22
2023/10/22 10:54:02;;;;;;;0.80;0.80;;;;;;;;;;4974782;28;20466;-24
2023/10/22 10:56:47;;;;;;;0.70;0.70;;;;;;;;;;4975682;28;20063;-22
2023/10/22 10:59:31;;;;;;;0.98;0.88;;;;;;;;;;4974688;28;20477;-23
2023/10/22 11:01:59;;;;;;;0.93;0.93;;;;;;;;;;4975550;28;20110;-24
2023/10/22 11:04:25;;;;;;;0.82;0.80;;;;;;;;;;4975584;28;20027;-24
2023/10/22 11:06:51;;;;;;;0.70;0.70;;;;;;;;;;4975579;28;20098;-26
2023/10/22 11:09:17;;;;;;;0.70;0.70;;;;;;;;;;4975519;28;20030;-22
2023/10/22 11:12:01;;;;;;;0.85;0.80;;;;;;;;;;4975508;28;20484;-23
2023/10/22 11:14:27;;;;;;;0.90;0.90;;;;;;;;;;4974502;28;20034;-22
2023/10/22 11:16:55;;;;;;;0.63;0.63;;;;;;;;;;4975476;28;20382;-22
2023/10/22 11:19:25;;;;;;;0.55;0.55;;;;;;;;;;4975322;28;20019;-22
2023/10/22 11:21:51;;;;;;;1.08;0.52;;;;;;;;;;4975249;28;20031;-24
2023/10/22 11:24:18;;;;;;;0.75;0.70;;;;;;;;;;4975307;28;20031;-23
2023/10/22 11:26:45;;;;;;;0.55;0.55;;;;;;;;;;4974592;28;20339;-22
2023/10/22 11:29:11;;;;;;;0.55;0.55;;;;;;;;;;4975203;28;20022;-26
2023/10/22 11:31:37;;;;;;;0.75;0.70;;;;;;;;;;4975183;28;20033;-23
2023/10/22 11:34:16;;;;;;;0.80;0.80;;;;;;;;;;4975124;28;20031;-23
2023/10/22 11:36:42;;;;;;;0.60;0.60;;;;;;;;;;4975148;28;20034;-23
2023/10/22 11:39:21;;;;;;;0.77;0.77;;;;;;;;;;4974998;28;20027;-23
2023/10/22 11:41:52;;;;;;;0.60;0.60;;;;;;;;;;4975217;28;20037;-22
2023/10/22 11:44:31;;;;;;;1.48;0.90;;;;;;;;;;4975293;28;20023;-23
2023/10/22 11:46:58;;;;;;;0.85;0.82;;;;;;;;;;4975553;28;20088;-24
2023/10/22 11:49:24;;;;;;;0.80;0.77;;;;;;;;;;4975222;28;20360;-24
2023/10/22 11:51:50;;;;;;;0.73;0.70;;;;;;;;;;4975055;28;20030;-22
2023/10/22 11:54:16;;;;;;;0.60;0.60;;;;;;;;;;4974840;28;20057;-22
2023/10/22 11:56:42;;;;;;;0.50;0.50;;;;;;;;;;4974790;28;20084;-22
2023/10/22 11:59:09;;;;;;;0.60;0.60;;;;;;;;;;4974552;28;20050;-22
2023/10/22 12:01:35;;;;;;;0.70;0.70;;;;;;;;;;4974755;28;20031;-23
2023/10/22 12:04:03;;;;;;;0.70;0.70;;;;;;;;;;4975169;28;20484;-22
2023/10/22 12:06:29;;;;;;;1.27;0.90;;;;;;;;;;4974951;28;20023;-22
2023/10/22 12:08:56;;;;;;;0.70;0.70;;;;;;;;;;4974646;28;20031;-22
2023/10/22 12:11:22;;;;;;;1.10;1.10;;;;;;;;;;4974625;28;20403;-22
2023/10/22 12:13:48;;;;;;;0.70;0.70;;;;;;;;;;4974490;28;20054;-22
2023/10/22 12:16:14;;;;;;;0.60;0.60;;;;;;;;;;4974792;28;20059;-22
2023/10/22 12:18:40;;;;;;;0.60;0.60;;;;;;;;;;4974458;28;20046;-22
2023/10/22 12:21:06;;;;;;;0.77;0.75;;;;;;;;;;4974750;28;20395;-23
2023/10/22 12:23:33;;;;;;;0.65;0.65;;;;;;;;;;4974385;28;20023;-22
2023/10/22 12:25:59;;;;;;;0.70;0.70;;;;;;;;;;4974651;28;20350;-23
2023/10/22 12:28:28;;;;;;;0.63;0.63;;;;;;;;;;4975127;28;20065;-23
2023/10/22 12:30:54;;;;;;;0.93;0.90;;;;;;;;;;4973405;28;20134;-22
2023/10/22 12:33:20;;;;;;;0.80;0.80;;;;;;;;;;4974210;28;20053;-23
2023/10/22 12:35:46;;;;;;;1.38;0.80;;;;;;;;;;4974328;28;20034;-22
2023/10/22 12:38:12;;;;;;;0.43;0.43;;;;;;;;;;4972035;28;20027;-27
2023/10/22 12:40:39;;;;;;;1.00;0.80;;;;;;;;;;4974740;28;20342;-24
2023/10/22 12:43:05;;;;;;;0.63;0.63;;;;;;;;;;4974133;28;20077;-22
2023/10/22 12:45:31;;;;;;;1.10;0.80;;;;;;;;;;4974093;28;20015;-22
2023/10/22 12:47:57;;;;;;;1.05;0.80;;;;;;;;;;4974307;28;20031;-22
2023/10/22 12:50:23;;;;;;;0.80;0.80;;;;;;;;;;4974048;28;20027;-22
2023/10/22 12:52:49;;;;;;;0.55;0.55;;;;;;;;;;4974042;28;20046;-22
2023/10/22 12:55:16;;;;;;;0.75;0.75;;;;;;;;;;4974211;28;20027;-22
2023/10/22 12:57:42;;;;;;;0.88;0.80;;;;;;;;;;4973554;28;20118;-22
2023/10/22 13:00:12;;;;;;;0.60;0.60;;;;;;;;;;4974118;28;20105;-22
2023/10/22 13:02:38;;;;;;;0.47;0.47;;;;;;;;;;4973749;28;20041;-22
2023/10/22 13:05:07;;;;;;;0.85;0.85;;;;;;;;;;4973758;28;20027;-22
2023/10/22 13:07:33;;;;;;;0.60;0.60;;;;;;;;;;4974041;28;20026;-22
2023/10/22 13:09:59;;;;;;;0.73;0.73;;;;;;;;;;4972800;28;20031;-26
2023/10/22 13:12:26;;;;;;;0.93;0.70;;;;;;;;;;4973874;28;20062;-22
2023/10/22 13:14:53;;;;;;;0.90;0.80;;;;;;;;;;4973940;28;20031;-22
2023/10/22 13:17:20;;;;;;;0.80;0.80;;;;;;;;;;4973022;28;20073;-25
2023/10/22 13:19:46;;;;;;;0.55;0.55;;;;;;;;;;4972570;28;20106;-22
2023/10/22 13:22:12;;;;;;;0.68;0.60;;;;;;;;;;4973739;28;20071;-24
2023/10/22 13:24:38;;;;;;;0.90;0.90;;;;;;;;;;4973787;28;20038;-22
2023/10/22 13:27:04;;;;;;;0.68;0.60;;;;;;;;;;4973511;28;20358;-25
2023/10/22 13:29:31;;;;;;;0.60;0.60;;;;;;;;;;4973477;28;20355;-22
2023/10/22 13:31:57;;;;;;;0.70;0.70;;;;;;;;;;4973623;28;20031;-22
2023/10/22 13:34:23;;;;;;;0.70;0.70;;;;;;;;;;4973708;28;20049;-25
2023/10/22 13:36:49;;;;;;;0.73;0.70;;;;;;;;;;4973368;28;20093;-22
2023/10/22 13:39:16;;;;;;;0.60;0.60;;;;;;;;;;4973176;28;20027;-22
2023/10/22 13:41:43;;;;;;;0.70;0.70;;;;;;;;;;4973271;28;20027;-23
2023/10/22 13:44:10;;;;;;;0.50;0.50;;;;;;;;;;4973411;28;20048;-22
2023/10/22 13:46:36;;;;;;;0.60;0.60;;;;;;;;;;4973506;28;20442;-22
2023/10/22 13:49:02;;;;;;;0.82;0.82;;;;;;;;;;4972796;28;20092;-22
2023/10/22 13:51:28;;;;;;;0.75;0.75;;;;;;;;;;4973437;28;20034;-22
2023/10/22 13:53:54;;;;;;;0.70;0.70;;;;;;;;;;4973319;28;20454;-23
2023/10/22 13:56:21;;;;;;;0.93;0.93;;;;;;;;;;4973371;28;20109;-22
2023/10/22 13:58:47;;;;;;;0.73;0.70;;;;;;;;;;4972863;28;20042;-22
2023/10/22 14:01:14;;;;;;;1.00;0.95;;;;;;;;;;4972173;28;20116;-22
2023/10/22 14:03:40;;;;;;;1.15;0.68;;;;;;;;;;4972980;28;20101;-22
2023/10/22 14:06:06;;;;;;;1.02;0.70;;;;;;;;;;4973541;28;20350;-22
2023/10/22 14:08:32;;;;;;;1.00;0.90;;;;;;;;;;4973198;28;20027;-22
2023/10/22 14:10:59;;;;;;;0.60;0.60;;;;;;;;;;4973469;28;20031;-22
2023/10/22 14:13:25;;;;;;;0.65;0.60;;;;;;;;;;4972884;28;20122;-22
2023/10/22 14:15:51;;;;;;;0.80;0.80;;;;;;;;;;4972915;28;20057;-22
2023/10/22 14:18:17;;;;;;;0.88;0.88;;;;;;;;;;4973079;28;20117;-22
2023/10/22 14:20:45;;;;;;;0.70;0.70;;;;;;;;;;4972802;28;20062;-23
2023/10/22 14:23:11;;;;;;;0.88;0.70;;;;;;;;;;4972708;28;20042;-25
2023/10/22 14:25:37;;;;;;;0.80;0.80;;;;;;;;;;4973048;28;20456;-22
2023/10/22 14:28:03;;;;;;;0.65;0.65;;;;;;;;;;4972773;28;20401;-23
2023/10/22 14:30:30;;;;;;;0.60;0.60;;;;;;;;;;4973008;28;20038;-23
2023/10/22 14:32:56;;;;;;;0.60;0.60;;;;;;;;;;4972919;28;20027;-22
2023/10/22 14:35:22;;;;;;;1.23;0.88;;;;;;;;;;4972681;28;20038;-22
2023/10/22 14:37:48;;;;;;;0.63;0.63;;;;;;;;;;4972795;28;20035;-22
2023/10/22 14:40:14;;;;;;;0.73;0.73;;;;;;;;;;4972870;28;20157;-22
2023/10/22 14:42:40;;;;;;;0.50;0.50;;;;;;;;;;4972694;28;20102;-22
2023/10/22 14:45:08;;;;;;;0.40;0.40;;;;;;;;;;4972510;28;20047;-22